sensor_id;sensor_type;location;lat;lon;timestamp;temperature;humidity
13835;DHT22;6988;52.614;13.500;2022-07-22T00:03:28;20.90;99.90
13835;DHT22;6988;52.614;13.500;2022-07-22T00:08:20;20.90;99.90
13835;DHT22;6988;52.614;13.500;2022-07-22T00:13:12;20.80;99.90
13835;DHT22;6988;52.614;13.500;2022-07-22T00:18:04;20.80;99.90
13835;DHT22;6988;52.614;13.500;2022-07-22T00:22:57;20.90;99.90
13835;DHT22;6988;52.614;13.500;2022-07-22T00:27:49;20.90;99.90
13835;DHT22;6988;52.614;13.500;2022-07-22T00:32:41;20.90;99.90
13835;DHT22;6988;52.614;13.500;2022-07-22T00:37:32;20.90;99.90
13835;DHT22;6988;52.614;13.500;2022-07-22T00:42:26;20.90;99.90
13835;DHT22;6988;52.614;13.500;2022-07-22T00:47:17;21.00;99.90
13835;DHT22;6988;52.614;13.500;2022-07-22T00:52:09;20.90;99.90
13835;DHT22;6988;52.614;13.500;2022-07-22T00:57:01;20.80;99.90
13835;DHT22;6988;52.614;13.500;2022-07-22T01:01:55;20.90;99.90
13835;DHT22;6988;52.614;13.500;2022-07-22T01:06:48;20.80;99.90
13835;DHT22;6988;52.614;13.500;2022-07-22T01:11:41;20.80;99.90
13835;DHT22;6988;52.614;13.500;2022-07-22T01:16:33;20.80;99.90
13835;DHT22;6988;52.614;13.500;2022-07-22T01:21:26;20.70;99.90
13835;DHT22;6988;52.614;13.500;2022-07-22T01:26:17;20.70;99.90
13835;DHT22;6988;52.614;13.500;2022-07-22T01:31:09;20.70;99.90
13835;DHT22;6988;52.614;13.500;2022-07-22T01:36:03;20.60;99.90
13835;DHT22;6988;52.614;13.500;2022-07-22T01:40:57;20.60;99.90
13835;DHT22;6988;52.614;13.500;2022-07-22T01:45:52;20.50;99.90
13835;DHT22;6988;52.614;13.500;2022-07-22T01:50:46;20.40;99.90
13835;DHT22;6988;52.614;13.500;2022-07-22T01:55:38;20.40;99.90
13835;DHT22;6988;52.614;13.500;2022-07-22T02:00:32;20.40;99.90
13835;DHT22;6988;52.614;13.500;2022-07-22T02:05:25;20.30;99.90
13835;DHT22;6988;52.614;13.500;2022-07-22T02:10:20;20.20;99.90
13835;DHT22;6988;52.614;13.500;2022-07-22T02:15:11;20.30;99.90
13835;DHT22;6988;52.614;13.500;2022-07-22T02:20:06;20.20;99.90
13835;DHT22;6988;52.614;13.500;2022-07-22T02:24:59;20.20;99.90
13835;DHT22;6988;52.614;13.500;2022-07-22T02:29:50;20.20;99.90
13835;DHT22;6988;52.614;13.500;2022-07-22T02:34:42;20.20;99.90
13835;DHT22;6988;52.614;13.500;2022-07-22T02:39:35;20.10;99.90
13835;DHT22;6988;52.614;13.500;2022-07-22T02:44:27;20.00;99.90
13835;DHT22;6988;52.614;13.500;2022-07-22T02:49:20;20.00;99.90
13835;DHT22;6988;52.614;13.500;2022-07-22T02:54:12;20.00;99.90
13835;DHT22;6988;52.614;13.500;2022-07-22T02:59:05;19.90;99.90
13835;DHT22;6988;52.614;13.500;2022-07-22T03:03:59;19.80;99.90
13835;DHT22;6988;52.614;13.500;2022-07-22T03:08:52;19.80;99.90
13835;DHT22;6988;52.614;13.500;2022-07-22T03:13:44;19.70;99.90
13835;DHT22;6988;52.614;13.500;2022-07-22T03:18:38;19.60;99.90
13835;DHT22;6988;52.614;13.500;2022-07-22T03:23:29;19.60;99.90
13835;DHT22;6988;52.614;13.500;2022-07-22T03:28:22;19.60;99.90
13835;DHT22;6988;52.614;13.500;2022-07-22T03:33:16;19.50;99.90
13835;DHT22;6988;52.614;13.500;2022-07-22T03:38:10;19.50;99.90
13835;DHT22;6988;52.614;13.500;2022-07-22T03:43:03;19.40;99.90
13835;DHT22;6988;52.614;13.500;2022-07-22T03:47:55;19.30;99.90
13835;DHT22;6988;52.614;13.500;2022-07-22T03:52:50;19.40;99.90
13835;DHT22;6988;52.614;13.500;2022-07-22T03:57:43;19.40;99.90
13835;DHT22;6988;52.614;13.500;2022-07-22T04:02:45;19.40;99.90
13835;DHT22;6988;52.614;13.500;2022-07-22T04:07:46;19.30;99.90
13835;DHT22;6988;52.614;13.500;2022-07-22T04:12:39;19.30;99.90
13835;DHT22;6988;52.614;13.500;2022-07-22T04:17:40;19.30;99.90
13835;DHT22;6988;52.614;13.500;2022-07-22T04:22:32;19.40;99.90
13835;DHT22;6988;52.614;13.500;2022-07-22T04:27:24;19.30;99.90
13835;DHT22;6988;52.614;13.500;2022-07-22T04:32:16;19.40;99.90
13835;DHT22;6988;52.614;13.500;2022-07-22T04:37:09;19.40;99.90
13835;DHT22;6988;52.614;13.500;2022-07-22T04:42:01;19.40;99.90
13835;DHT22;6988;52.614;13.500;2022-07-22T04:46:54;19.40;99.90
13835;DHT22;6988;52.614;13.500;2022-07-22T04:51:46;19.50;99.90
13835;DHT22;6988;52.614;13.500;2022-07-22T04:56:49;19.60;99.90
13835;DHT22;6988;52.614;13.500;2022-07-22T05:01:41;19.60;99.90
13835;DHT22;6988;52.614;13.500;2022-07-22T05:06:33;19.60;99.90
13835;DHT22;6988;52.614;13.500;2022-07-22T05:11:26;19.70;99.90
13835;DHT22;6988;52.614;13.500;2022-07-22T05:16:19;19.90;99.90
13835;DHT22;6988;52.614;13.500;2022-07-22T05:21:12;19.90;99.90
13835;DHT22;6988;52.614;13.500;2022-07-22T05:26:05;19.80;99.90
13835;DHT22;6988;52.614;13.500;2022-07-22T05:30:57;19.90;99.90
13835;DHT22;6988;52.614;13.500;2022-07-22T05:35:53;20.00;99.90
13835;DHT22;6988;52.614;13.500;2022-07-22T05:40:45;20.00;99.90
13835;DHT22;6988;52.614;13.500;2022-07-22T05:45:37;20.00;99.90
13835;DHT22;6988;52.614;13.500;2022-07-22T05:50:29;20.00;99.90
13835;DHT22;6988;52.614;13.500;2022-07-22T05:55:23;20.10;99.90
13835;DHT22;6988;52.614;13.500;2022-07-22T06:00:17;20.10;99.90
13835;DHT22;6988;52.614;13.500;2022-07-22T06:05:09;20.20;99.90
13835;DHT22;6988;52.614;13.500;2022-07-22T06:10:02;20.40;99.90
13835;DHT22;6988;52.614;13.500;2022-07-22T06:14:58;20.60;99.90
13835;DHT22;6988;52.614;13.500;2022-07-22T06:19:50;20.60;99.90
13835;DHT22;6988;52.614;13.500;2022-07-22T06:24:43;20.60;99.90
13835;DHT22;6988;52.614;13.500;2022-07-22T06:29:37;20.60;99.90
13835;DHT22;6988;52.614;13.500;2022-07-22T06:34:30;20.90;99.90
13835;DHT22;6988;52.614;13.500;2022-07-22T06:39:26;21.00;99.90
13835;DHT22;6988;52.614;13.500;2022-07-22T06:44:36;21.20;99.90
13835;DHT22;6988;52.614;13.500;2022-07-22T06:49:40;21.40;99.90
13835;DHT22;6988;52.614;13.500;2022-07-22T06:54:32;21.50;99.90
13835;DHT22;6988;52.614;13.500;2022-07-22T06:59:26;21.60;99.90
13835;DHT22;6988;52.614;13.500;2022-07-22T07:04:18;21.70;99.90
13835;DHT22;6988;52.614;13.500;2022-07-22T07:09:11;21.90;99.90
13835;DHT22;6988;52.614;13.500;2022-07-22T07:14:05;21.90;99.90
13835;DHT22;6988;52.614;13.500;2022-07-22T07:18:57;22.00;99.90
13835;DHT22;6988;52.614;13.500;2022-07-22T07:23:51;22.60;99.90
13835;DHT22;6988;52.614;13.500;2022-07-22T07:28:44;23.10;99.90
13835;DHT22;6988;52.614;13.500;2022-07-22T07:33:45;23.30;99.90
13835;DHT22;6988;52.614;13.500;2022-07-22T07:38:37;23.30;99.90
13835;DHT22;6988;52.614;13.500;2022-07-22T07:43:33;23.70;99.90
13835;DHT22;6988;52.614;13.500;2022-07-22T07:48:27;24.10;99.90
13835;DHT22;6988;52.614;13.500;2022-07-22T07:53:19;24.10;99.90
13835;DHT22;6988;52.614;13.500;2022-07-22T07:58:11;23.90;99.90
13835;DHT22;6988;52.614;13.500;2022-07-22T08:03:05;23.60;99.90
13835;DHT22;6988;52.614;13.500;2022-07-22T08:07:58;23.40;99.90
13835;DHT22;6988;52.614;13.500;2022-07-22T08:12:50;23.30;99.90
13835;DHT22;6988;52.614;13.500;2022-07-22T08:17:52;23.60;99.90
13835;DHT22;6988;52.614;13.500;2022-07-22T08:22:44;23.90;99.90
13835;DHT22;6988;52.614;13.500;2022-07-22T08:27:37;23.60;99.90
13835;DHT22;6988;52.614;13.500;2022-07-22T08:32:29;23.70;99.90
13835;DHT22;6988;52.614;13.500;2022-07-22T08:37:21;24.10;99.90
13835;DHT22;6988;52.614;13.500;2022-07-22T08:42:13;24.50;99.90
13835;DHT22;6988;52.614;13.500;2022-07-22T08:47:06;24.60;99.90
13835;DHT22;6988;52.614;13.500;2022-07-22T08:52:36;24.10;99.90
13835;DHT22;6988;52.614;13.500;2022-07-22T08:57:28;23.60;99.90
13835;DHT22;6988;52.614;13.500;2022-07-22T09:02:24;23.50;99.90
13835;DHT22;6988;52.614;13.500;2022-07-22T09:07:24;23.40;99.90
13835;DHT22;6988;52.614;13.500;2022-07-22T09:12:24;23.80;99.90
13835;DHT22;6988;52.614;13.500;2022-07-22T09:17:35;24.20;99.90
13835;DHT22;6988;52.614;13.500;2022-07-22T09:22:55;24.10;99.90
13835;DHT22;6988;52.614;13.500;2022-07-22T09:27:55;23.60;99.90
13835;DHT22;6988;52.614;13.500;2022-07-22T09:32:54;23.20;99.90
13835;DHT22;6988;52.614;13.500;2022-07-22T09:38:01;23.10;99.90
13835;DHT22;6988;52.614;13.500;2022-07-22T09:42:57;23.00;99.90
13835;DHT22;6988;52.614;13.500;2022-07-22T09:47:50;22.80;99.90
13835;DHT22;6988;52.614;13.500;2022-07-22T09:53:12;22.50;99.90
13835;DHT22;6988;52.614;13.500;2022-07-22T09:58:09;22.30;99.90
13835;DHT22;6988;52.614;13.500;2022-07-22T10:03:05;22.20;99.90
13835;DHT22;6988;52.614;13.500;2022-07-22T10:08:00;22.40;99.90
13835;DHT22;6988;52.614;13.500;2022-07-22T10:12:57;23.00;99.90
13835;DHT22;6988;52.614;13.500;2022-07-22T10:17:52;23.60;99.90
13835;DHT22;6988;52.614;13.500;2022-07-22T10:22:48;23.40;99.90
13835;DHT22;6988;52.614;13.500;2022-07-22T10:27:47;23.10;99.90
13835;DHT22;6988;52.614;13.500;2022-07-22T10:32:41;23.20;99.90
13835;DHT22;6988;52.614;13.500;2022-07-22T10:37:36;23.30;99.90
13835;DHT22;6988;52.614;13.500;2022-07-22T10:43:03;23.10;99.90
13835;DHT22;6988;52.614;13.500;2022-07-22T10:48:06;23.20;99.90
13835;DHT22;6988;52.614;13.500;2022-07-22T10:53:00;23.40;99.90
13835;DHT22;6988;52.614;13.500;2022-07-22T10:57:52;23.70;99.90
13835;DHT22;6988;52.614;13.500;2022-07-22T11:02:45;24.20;99.90
13835;DHT22;6988;52.614;13.500;2022-07-22T11:07:42;24.90;99.90
13835;DHT22;6988;52.614;13.500;2022-07-22T11:12:34;25.80;99.90
13835;DHT22;6988;52.614;13.500;2022-07-22T11:17:26;26.10;99.90
13835;DHT22;6988;52.614;13.500;2022-07-22T11:22:18;26.70;99.90
13835;DHT22;6988;52.614;13.500;2022-07-22T11:27:14;26.30;99.90
13835;DHT22;6988;52.614;13.500;2022-07-22T11:32:09;26.90;99.90
13835;DHT22;6988;52.614;13.500;2022-07-22T11:37:02;27.40;99.90
13835;DHT22;6988;52.614;13.500;2022-07-22T11:41:55;27.50;99.90
13835;DHT22;6988;52.614;13.500;2022-07-22T11:46:49;27.30;99.90
13835;DHT22;6988;52.614;13.500;2022-07-22T11:51:42;27.20;99.90
13835;DHT22;6988;52.614;13.500;2022-07-22T11:56:35;26.80;99.90
13835;DHT22;6988;52.614;13.500;2022-07-22T12:01:28;26.30;99.90
13835;DHT22;6988;52.614;13.500;2022-07-22T12:06:22;26.10;99.90
13835;DHT22;6988;52.614;13.500;2022-07-22T12:11:17;25.90;99.90
13835;DHT22;6988;52.614;13.500;2022-07-22T12:16:20;25.70;99.90
13835;DHT22;6988;52.614;13.500;2022-07-22T12:21:14;25.70;99.90
13835;DHT22;6988;52.614;13.500;2022-07-22T12:26:08;26.10;99.90
13835;DHT22;6988;52.614;13.500;2022-07-22T12:31:00;26.00;99.90
13835;DHT22;6988;52.614;13.500;2022-07-22T12:36:00;25.90;99.90
13835;DHT22;6988;52.614;13.500;2022-07-22T12:40:54;25.80;99.90
13835;DHT22;6988;52.614;13.500;2022-07-22T12:45:47;25.80;99.90
13835;DHT22;6988;52.614;13.500;2022-07-22T12:50:40;26.10;99.90
13835;DHT22;6988;52.614;13.500;2022-07-22T12:55:35;26.00;99.90
13835;DHT22;6988;52.614;13.500;2022-07-22T13:00:30;26.00;99.90
13835;DHT22;6988;52.614;13.500;2022-07-22T13:05:25;25.90;99.90
13835;DHT22;6988;52.614;13.500;2022-07-22T13:10:17;26.00;99.90
13835;DHT22;6988;52.614;13.500;2022-07-22T13:15:09;26.40;99.90
13835;DHT22;6988;52.614;13.500;2022-07-22T13:20:02;26.90;99.90
13835;DHT22;6988;52.614;13.500;2022-07-22T13:24:56;27.20;99.90
13835;DHT22;6988;52.614;13.500;2022-07-22T13:29:48;27.50;99.90
13835;DHT22;6988;52.614;13.500;2022-07-22T13:34:40;27.90;99.90
13835;DHT22;6988;52.614;13.500;2022-07-22T13:39:32;28.20;99.90
13835;DHT22;6988;52.614;13.500;2022-07-22T13:44:25;28.30;99.90
13835;DHT22;6988;52.614;13.500;2022-07-22T13:49:17;27.70;99.90
13835;DHT22;6988;52.614;13.500;2022-07-22T13:54:09;27.50;99.90
13835;DHT22;6988;52.614;13.500;2022-07-22T13:59:01;28.10;99.90
13835;DHT22;6988;52.614;13.500;2022-07-22T14:03:55;28.50;99.90
13835;DHT22;6988;52.614;13.500;2022-07-22T14:08:47;28.50;99.90
13835;DHT22;6988;52.614;13.500;2022-07-22T14:13:39;28.40;99.90
13835;DHT22;6988;52.614;13.500;2022-07-22T14:18:31;28.20;99.90
13835;DHT22;6988;52.614;13.500;2022-07-22T14:23:24;28.30;99.90
13835;DHT22;6988;52.614;13.500;2022-07-22T14:28:16;28.30;99.90
13835;DHT22;6988;52.614;13.500;2022-07-22T14:33:07;28.20;99.90
13835;DHT22;6988;52.614;13.500;2022-07-22T14:37:59;28.20;99.90
13835;DHT22;6988;52.614;13.500;2022-07-22T14:42:52;28.30;99.90
13835;DHT22;6988;52.614;13.500;2022-07-22T14:47:44;28.30;99.90
13835;DHT22;6988;52.614;13.500;2022-07-22T14:52:36;28.10;99.90
13835;DHT22;6988;52.614;13.500;2022-07-22T14:57:28;28.10;99.90
13835;DHT22;6988;52.614;13.500;2022-07-22T15:02:21;27.80;99.90
13835;DHT22;6988;52.614;13.500;2022-07-22T15:07:12;27.90;99.90
13835;DHT22;6988;52.614;13.500;2022-07-22T15:12:04;27.70;99.90
13835;DHT22;6988;52.614;13.500;2022-07-22T15:16:56;27.70;99.90
13835;DHT22;6988;52.614;13.500;2022-07-22T15:21:49;27.80;99.90
13835;DHT22;6988;52.614;13.500;2022-07-22T15:26:41;27.80;99.90
13835;DHT22;6988;52.614;13.500;2022-07-22T15:31:33;27.60;99.90
13835;DHT22;6988;52.614;13.500;2022-07-22T15:36:25;27.50;99.90
13835;DHT22;6988;52.614;13.500;2022-07-22T15:41:18;27.40;99.90
13835;DHT22;6988;52.614;13.500;2022-07-22T15:46:10;27.50;99.90
13835;DHT22;6988;52.614;13.500;2022-07-22T15:51:03;27.40;99.90
13835;DHT22;6988;52.614;13.500;2022-07-22T15:55:54;27.20;99.90
13835;DHT22;6988;52.614;13.500;2022-07-22T16:00:47;27.10;99.90
13835;DHT22;6988;52.614;13.500;2022-07-22T16:05:39;27.20;99.90
13835;DHT22;6988;52.614;13.500;2022-07-22T16:10:31;27.20;99.90
13835;DHT22;6988;52.614;13.500;2022-07-22T16:15:23;27.10;99.90
13835;DHT22;6988;52.614;13.500;2022-07-22T16:20:16;27.10;99.90
13835;DHT22;6988;52.614;13.500;2022-07-22T16:25:08;26.90;99.90
13835;DHT22;6988;52.614;13.500;2022-07-22T16:30:04;26.70;99.90
13835;DHT22;6988;52.614;13.500;2022-07-22T16:34:58;26.70;99.90
13835;DHT22;6988;52.614;13.500;2022-07-22T16:39:51;26.50;99.90
13835;DHT22;6988;52.614;13.500;2022-07-22T16:44:44;26.00;99.90
13835;DHT22;6988;52.614;13.500;2022-07-22T16:49:36;25.60;99.90
13835;DHT22;6988;52.614;13.500;2022-07-22T16:54:27;25.40;99.90
13835;DHT22;6988;52.614;13.500;2022-07-22T16:59:21;25.20;99.90
13835;DHT22;6988;52.614;13.500;2022-07-22T17:04:12;25.10;99.90
13835;DHT22;6988;52.614;13.500;2022-07-22T17:09:04;24.90;99.90
13835;DHT22;6988;52.614;13.500;2022-07-22T17:13:56;24.60;99.90
13835;DHT22;6988;52.614;13.500;2022-07-22T17:18:49;24.50;99.90
13835;DHT22;6988;52.614;13.500;2022-07-22T17:23:41;24.40;99.90
13835;DHT22;6988;52.614;13.500;2022-07-22T17:28:33;24.20;99.90
13835;DHT22;6988;52.614;13.500;2022-07-22T17:33:25;24.10;99.90
13835;DHT22;6988;52.614;13.500;2022-07-22T17:38:18;24.00;99.90
13835;DHT22;6988;52.614;13.500;2022-07-22T17:43:10;23.80;99.90
13835;DHT22;6988;52.614;13.500;2022-07-22T17:48:01;23.70;99.90
13835;DHT22;6988;52.614;13.500;2022-07-22T17:52:53;23.50;99.90
13835;DHT22;6988;52.614;13.500;2022-07-22T17:57:46;23.20;99.90
13835;DHT22;6988;52.614;13.500;2022-07-22T18:02:38;23.20;99.90
13835;DHT22;6988;52.614;13.500;2022-07-22T18:07:30;23.20;99.90
13835;DHT22;6988;52.614;13.500;2022-07-22T18:12:22;23.00;99.90
13835;DHT22;6988;52.614;13.500;2022-07-22T18:17:15;22.90;99.90
13835;DHT22;6988;52.614;13.500;2022-07-22T18:22:06;22.70;99.90
13835;DHT22;6988;52.614;13.500;2022-07-22T18:26:58;22.80;99.90
13835;DHT22;6988;52.614;13.500;2022-07-22T18:31:50;22.60;99.90
13835;DHT22;6988;52.614;13.500;2022-07-22T18:36:43;22.30;99.90
13835;DHT22;6988;52.614;13.500;2022-07-22T18:41:35;22.30;99.90
13835;DHT22;6988;52.614;13.500;2022-07-22T18:46:26;22.20;99.90
13835;DHT22;6988;52.614;13.500;2022-07-22T18:51:18;22.10;99.90
13835;DHT22;6988;52.614;13.500;2022-07-22T18:56:11;22.00;99.90
13835;DHT22;6988;52.614;13.500;2022-07-22T19:01:03;21.90;99.90
13835;DHT22;6988;52.614;13.500;2022-07-22T19:05:55;21.70;99.90
13835;DHT22;6988;52.614;13.500;2022-07-22T19:10:46;21.60;99.90
13835;DHT22;6988;52.614;13.500;2022-07-22T19:15:40;21.50;99.90
13835;DHT22;6988;52.614;13.500;2022-07-22T19:20:32;21.40;99.90
13835;DHT22;6988;52.614;13.500;2022-07-22T19:25:24;21.30;99.90
13835;DHT22;6988;52.614;13.500;2022-07-22T19:30:15;21.10;99.90
13835;DHT22;6988;52.614;13.500;2022-07-22T19:35:09;21.10;99.90
13835;DHT22;6988;52.614;13.500;2022-07-22T19:40:00;20.90;99.90
13835;DHT22;6988;52.614;13.500;2022-07-22T19:44:52;20.80;99.90
13835;DHT22;6988;52.614;13.500;2022-07-22T19:49:44;20.70;99.90
13835;DHT22;6988;52.614;13.500;2022-07-22T19:54:37;20.70;99.90
13835;DHT22;6988;52.614;13.500;2022-07-22T19:59:29;20.60;99.90
13835;DHT22;6988;52.614;13.500;2022-07-22T20:04:20;20.50;99.90
13835;DHT22;6988;52.614;13.500;2022-07-22T20:09:12;20.70;99.90
13835;DHT22;6988;52.614;13.500;2022-07-22T20:14:05;20.50;99.90
13835;DHT22;6988;52.614;13.500;2022-07-22T20:18:57;20.40;99.90
13835;DHT22;6988;52.614;13.500;2022-07-22T20:23:49;20.30;99.90
13835;DHT22;6988;52.614;13.500;2022-07-22T20:28:42;20.30;99.90
13835;DHT22;6988;52.614;13.500;2022-07-22T20:33:35;20.20;99.90
13835;DHT22;6988;52.614;13.500;2022-07-22T20:38:27;20.10;99.90
13835;DHT22;6988;52.614;13.500;2022-07-22T20:43:19;20.00;99.90
13835;DHT22;6988;52.614;13.500;2022-07-22T20:48:11;20.00;99.90
13835;DHT22;6988;52.614;13.500;2022-07-22T20:53:04;19.90;99.90
13835;DHT22;6988;52.614;13.500;2022-07-22T20:57:55;19.80;99.90
13835;DHT22;6988;52.614;13.500;2022-07-22T21:02:47;19.80;99.90
13835;DHT22;6988;52.614;13.500;2022-07-22T21:07:41;19.60;99.90
13835;DHT22;6988;52.614;13.500;2022-07-22T21:12:34;19.50;99.90
13835;DHT22;6988;52.614;13.500;2022-07-22T21:17:26;19.40;99.90
13835;DHT22;6988;52.614;13.500;2022-07-22T21:22:18;19.40;99.90
13835;DHT22;6988;52.614;13.500;2022-07-22T21:27:10;19.30;99.90
13835;DHT22;6988;52.614;13.500;2022-07-22T21:32:04;19.20;99.90
13835;DHT22;6988;52.614;13.500;2022-07-22T21:36:56;19.00;99.90
13835;DHT22;6988;52.614;13.500;2022-07-22T21:41:48;18.80;99.90
13835;DHT22;6988;52.614;13.500;2022-07-22T21:46:39;18.70;99.90
13835;DHT22;6988;52.614;13.500;2022-07-22T21:51:32;18.50;99.90
13835;DHT22;6988;52.614;13.500;2022-07-22T21:56:24;18.40;99.90
13835;DHT22;6988;52.614;13.500;2022-07-22T22:01:33;18.30;99.90
13835;DHT22;6988;52.614;13.500;2022-07-22T22:06:26;18.20;99.90
13835;DHT22;6988;52.614;13.500;2022-07-22T22:11:19;18.10;99.90
13835;DHT22;6988;52.614;13.500;2022-07-22T22:16:10;18.10;99.90
13835;DHT22;6988;52.614;13.500;2022-07-22T22:21:02;18.00;99.90
13835;DHT22;6988;52.614;13.500;2022-07-22T22:25:54;18.00;99.90
13835;DHT22;6988;52.614;13.500;2022-07-22T22:30:47;17.90;99.90
13835;DHT22;6988;52.614;13.500;2022-07-22T22:35:39;17.90;99.90
13835;DHT22;6988;52.614;13.500;2022-07-22T22:40:31;17.80;99.90
13835;DHT22;6988;52.614;13.500;2022-07-22T22:45:22;17.60;99.90
13835;DHT22;6988;52.614;13.500;2022-07-22T22:50:16;17.40;99.90
13835;DHT22;6988;52.614;13.500;2022-07-22T22:55:08;17.40;99.90
13835;DHT22;6988;52.614;13.500;2022-07-22T23:00:00;17.30;99.90
13835;DHT22;6988;52.614;13.500;2022-07-22T23:04:52;17.30;99.90
13835;DHT22;6988;52.614;13.500;2022-07-22T23:09:45;17.10;99.90
13835;DHT22;6988;52.614;13.500;2022-07-22T23:14:36;17.20;99.90
13835;DHT22;6988;52.614;13.500;2022-07-22T23:19:28;17.10;99.90
13835;DHT22;6988;52.614;13.500;2022-07-22T23:24:20;17.10;99.90
13835;DHT22;6988;52.614;13.500;2022-07-22T23:29:13;17.20;99.90
13835;DHT22;6988;52.614;13.500;2022-07-22T23:34:05;17.20;99.90
13835;DHT22;6988;52.614;13.500;2022-07-22T23:38:56;17.20;99.90
13835;DHT22;6988;52.614;13.500;2022-07-22T23:43:49;17.20;99.90
13835;DHT22;6988;52.614;13.500;2022-07-22T23:48:42;17.20;99.90
13835;DHT22;6988;52.614;13.500;2022-07-22T23:53:33;17.10;99.90
13835;DHT22;6988;52.614;13.500;2022-07-22T23:58:25;17.30;99.90
